Forside
METAR-TAF:

METAR-TAF

Lufthavne :

Sønderborg Lufthavn

Sønderborg, Danmark

Breddekreds: 54-58N, længdekreds: 009-47E, højde: 7 m

Aktuelle vejr

Denne rapport blev lavet for 22 minutter siden, kl. 15:20 UTC
Vind 7 kt fra sydøst
Temperatur 15°C
Fugtighed 59%
Tryk 1022 hPa
Sigt 10 km eller mere

METAR: EKSB 081520Z AUTO 13007KT 9999NDV NCD 15/07 Q1022

Tid: 17:42 (15:42 UTC)

Vejrudsigter

Denne rapport blev lavet for 6 timer og 43 minutter siden, kl. 08:59 UTC
Foreløbig gælder fra 08 på 09 UTC til 08 på 13 UTC
Vind 10 kt fra sydøst
Sigt 10 km eller mere
ingen skyer under 1500m og ingen cumulonimbus

TAF: EKSB 080859Z 0809/0813 14010KT CAVOK

Vejrobservationer og prognoser fra mere end 4000 lufthavne (METAR og TAF).

De gule og røde prikker repræsenterer de meteorologiske stationer.

Flyt musen over at se navnet på stationen.

Så klik over at se vejr observationer og prognoser.

At skifte det kort: Klik på de grønne knapper med et sort kors for at zoome ind; på den grønne knap med en bindestreg for at zoome ud; eller på de grønne pile for tilstødende kort.


METAR-TAF: